Caldas Brandao, Brazil
Current Conditions -  °F | °C
As of 3:00 PM on Monday 20 Oct 2014 (Local Time) from SBJP Reporting Station
Scattered Clouds Scattered Clouds  
Wind Chill: 82°   Ceiling: Unl
Heat Index: 84°   Visibility: 6mi
Dew Point: 64°   Wind: 13mph
Humidity: 54%   Direction: 110°ESE
Pressure: 29.88"   Gusts: NA
Location:  7.1°S, 35.33°W
Report Text: SBJP 201800Z 11011KT 9999 SCT030 28/18 Q1012
Loading
Personal Weather Stations






























Interactive Weather Map
Tropical Storm Tracking
New forecast layout! Learn more

10-Day Weather Forecast

Advertisements
Track Severe Weather on mobile